Terminal Aerodrome Forecast
Issued by NWS

Home | Current Version | Previous Version | Text Only | Print | Product List | Glossary On
Versions: 1 2 3 4 5 6 7 8 9 10 11 12 13 14 15 16 17 18 19 20 21
129
FTUS46 KHNX 082116 AAA
TAFFAT
TAF AMD
KFAT 082116Z 0821/0918 13010KT 5SM BR VCSH OVC030
      TEMPO 0821/0901 2SM -RA BR BKN005 OVC030
     FM090100 11005KT 4SM -RA BR OVC015=

USA.gov is the U.S. government's official web portal to all federal, state and local government web resources and services.